sensor_id;sensor_type;location;lat;lon;timestamp;temperature;humidity
11744;DHT22;5929;51.906;7.674;2023-12-20T00:00:21;6.80;99.90
11744;DHT22;5929;51.906;7.674;2023-12-20T00:02:48;6.80;99.90
11744;DHT22;5929;51.906;7.674;2023-12-20T00:05:15;6.70;99.90
11744;DHT22;5929;51.906;7.674;2023-12-20T00:07:42;6.70;99.90
11744;DHT22;5929;51.906;7.674;2023-12-20T00:10:09;6.70;99.90
11744;DHT22;5929;51.906;7.674;2023-12-20T00:12:38;6.70;99.90
11744;DHT22;5929;51.906;7.674;2023-12-20T00:15:08;6.70;99.90
11744;DHT22;5929;51.906;7.674;2023-12-20T00:17:35;6.70;99.90
11744;DHT22;5929;51.906;7.674;2023-12-20T00:20:01;6.80;99.90
11744;DHT22;5929;51.906;7.674;2023-12-20T00:22:28;6.70;99.90
11744;DHT22;5929;51.906;7.674;2023-12-20T00:24:55;6.80;99.90
11744;DHT22;5929;51.906;7.674;2023-12-20T00:27:22;6.80;99.90
11744;DHT22;5929;51.906;7.674;2023-12-20T00:29:49;6.70;99.90
11744;DHT22;5929;51.906;7.674;2023-12-20T00:32:18;6.80;99.90
11744;DHT22;5929;51.906;7.674;2023-12-20T00:34:45;6.80;99.90
11744;DHT22;5929;51.906;7.674;2023-12-20T00:37:12;6.80;99.90
11744;DHT22;5929;51.906;7.674;2023-12-20T00:39:39;6.80;99.90
11744;DHT22;5929;51.906;7.674;2023-12-20T00:42:06;6.90;99.90
11744;DHT22;5929;51.906;7.674;2023-12-20T00:44:32;6.90;99.90
11744;DHT22;5929;51.906;7.674;2023-12-20T00:46:59;6.90;99.90
11744;DHT22;5929;51.906;7.674;2023-12-20T00:49:28;6.90;99.90
11744;DHT22;5929;51.906;7.674;2023-12-20T00:51:54;7.00;99.90
11744;DHT22;5929;51.906;7.674;2023-12-20T00:54:21;6.90;99.90
11744;DHT22;5929;51.906;7.674;2023-12-20T00:56:48;6.90;99.90
11744;DHT22;5929;51.906;7.674;2023-12-20T00:59:16;6.80;99.90
11744;DHT22;5929;51.906;7.674;2023-12-20T01:01:43;6.80;99.90
11744;DHT22;5929;51.906;7.674;2023-12-20T01:04:10;6.70;99.90
11744;DHT22;5929;51.906;7.674;2023-12-20T01:06:38;6.70;99.90
11744;DHT22;5929;51.906;7.674;2023-12-20T01:09:05;6.70;99.90
11744;DHT22;5929;51.906;7.674;2023-12-20T01:11:32;6.70;99.90
11744;DHT22;5929;51.906;7.674;2023-12-20T01:14:01;6.60;99.90
11744;DHT22;5929;51.906;7.674;2023-12-20T01:16:31;6.60;99.90
11744;DHT22;5929;51.906;7.674;2023-12-20T01:18:58;6.60;99.90
11744;DHT22;5929;51.906;7.674;2023-12-20T01:21:25;6.60;99.90
11744;DHT22;5929;51.906;7.674;2023-12-20T01:23:53;6.60;99.90
11744;DHT22;5929;51.906;7.674;2023-12-20T01:26:20;6.50;99.90
11744;DHT22;5929;51.906;7.674;2023-12-20T01:28:46;6.50;99.90
11744;DHT22;5929;51.906;7.674;2023-12-20T01:31:13;6.50;99.90
11744;DHT22;5929;51.906;7.674;2023-12-20T01:33:40;6.40;99.90
11744;DHT22;5929;51.906;7.674;2023-12-20T01:36:07;6.40;99.90
11744;DHT22;5929;51.906;7.674;2023-12-20T01:38:34;6.40;99.90
11744;DHT22;5929;51.906;7.674;2023-12-20T01:41:04;6.30;99.90
11744;DHT22;5929;51.906;7.674;2023-12-20T01:43:31;6.30;99.90
11744;DHT22;5929;51.906;7.674;2023-12-20T01:45:58;6.30;99.90
11744;DHT22;5929;51.906;7.674;2023-12-20T01:48:25;6.30;99.90
11744;DHT22;5929;51.906;7.674;2023-12-20T01:50:52;6.40;99.90
11744;DHT22;5929;51.906;7.674;2023-12-20T01:53:22;6.30;99.90
11744;DHT22;5929;51.906;7.674;2023-12-20T01:55:51;6.30;99.90
11744;DHT22;5929;51.906;7.674;2023-12-20T01:58:21;6.30;99.90
11744;DHT22;5929;51.906;7.674;2023-12-20T02:00:48;6.30;99.90
11744;DHT22;5929;51.906;7.674;2023-12-20T02:03:16;6.30;99.90
11744;DHT22;5929;51.906;7.674;2023-12-20T02:05:44;6.30;99.90
11744;DHT22;5929;51.906;7.674;2023-12-20T02:08:12;6.30;99.90
11744;DHT22;5929;51.906;7.674;2023-12-20T02:10:39;6.30;99.90
11744;DHT22;5929;51.906;7.674;2023-12-20T02:13:07;6.30;99.90
11744;DHT22;5929;51.906;7.674;2023-12-20T02:15:35;6.30;99.90
11744;DHT22;5929;51.906;7.674;2023-12-20T02:18:04;6.20;99.90
11744;DHT22;5929;51.906;7.674;2023-12-20T02:20:31;6.20;99.90
11744;DHT22;5929;51.906;7.674;2023-12-20T02:22:59;6.20;99.90
11744;DHT22;5929;51.906;7.674;2023-12-20T02:25:26;6.20;99.90
11744;DHT22;5929;51.906;7.674;2023-12-20T02:27:52;6.20;99.90
11744;DHT22;5929;51.906;7.674;2023-12-20T02:30:19;6.20;99.90
11744;DHT22;5929;51.906;7.674;2023-12-20T02:32:46;6.30;99.90
11744;DHT22;5929;51.906;7.674;2023-12-20T02:35:13;6.20;99.90
11744;DHT22;5929;51.906;7.674;2023-12-20T02:37:40;6.20;99.90
11744;DHT22;5929;51.906;7.674;2023-12-20T02:40:09;6.20;99.90
11744;DHT22;5929;51.906;7.674;2023-12-20T02:42:36;6.20;99.90
11744;DHT22;5929;51.906;7.674;2023-12-20T02:45:03;6.20;99.90
11744;DHT22;5929;51.906;7.674;2023-12-20T02:47:32;6.20;99.90
11744;DHT22;5929;51.906;7.674;2023-12-20T02:49:59;6.30;99.90
11744;DHT22;5929;51.906;7.674;2023-12-20T02:52:27;6.30;99.90
11744;DHT22;5929;51.906;7.674;2023-12-20T02:54:54;6.30;99.90
11744;DHT22;5929;51.906;7.674;2023-12-20T02:57:22;6.30;99.90
11744;DHT22;5929;51.906;7.674;2023-12-20T02:59:49;6.30;99.90
11744;DHT22;5929;51.906;7.674;2023-12-20T03:02:15;6.30;99.90
11744;DHT22;5929;51.906;7.674;2023-12-20T03:04:42;6.30;99.90
11744;DHT22;5929;51.906;7.674;2023-12-20T03:07:09;6.30;99.90
11744;DHT22;5929;51.906;7.674;2023-12-20T03:09:37;6.30;99.90
11744;DHT22;5929;51.906;7.674;2023-12-20T03:12:04;6.40;99.90
11744;DHT22;5929;51.906;7.674;2023-12-20T03:14:32;6.40;99.90
11744;DHT22;5929;51.906;7.674;2023-12-20T03:16:59;6.40;99.90
11744;DHT22;5929;51.906;7.674;2023-12-20T03:19:26;6.40;99.90
11744;DHT22;5929;51.906;7.674;2023-12-20T03:21:53;6.40;99.90
11744;DHT22;5929;51.906;7.674;2023-12-20T03:24:20;6.40;99.90
11744;DHT22;5929;51.906;7.674;2023-12-20T03:26:46;6.40;99.90
11744;DHT22;5929;51.906;7.674;2023-12-20T03:29:13;6.40;99.90
11744;DHT22;5929;51.906;7.674;2023-12-20T03:31:41;6.40;99.90
11744;DHT22;5929;51.906;7.674;2023-12-20T03:34:08;6.40;99.90
11744;DHT22;5929;51.906;7.674;2023-12-20T03:36:35;6.40;99.90
11744;DHT22;5929;51.906;7.674;2023-12-20T03:39:02;6.40;99.90
11744;DHT22;5929;51.906;7.674;2023-12-20T03:41:28;6.40;99.90
11744;DHT22;5929;51.906;7.674;2023-12-20T03:43:55;6.40;99.90
11744;DHT22;5929;51.906;7.674;2023-12-20T03:46:22;6.40;99.90
11744;DHT22;5929;51.906;7.674;2023-12-20T03:48:50;6.30;99.90
11744;DHT22;5929;51.906;7.674;2023-12-20T03:51:17;6.30;99.90
11744;DHT22;5929;51.906;7.674;2023-12-20T03:53:44;6.20;99.90
11744;DHT22;5929;51.906;7.674;2023-12-20T03:56:10;6.20;99.90
11744;DHT22;5929;51.906;7.674;2023-12-20T03:58:37;6.20;99.90
11744;DHT22;5929;51.906;7.674;2023-12-20T04:01:09;6.20;99.90
11744;DHT22;5929;51.906;7.674;2023-12-20T04:03:36;6.20;99.90
11744;DHT22;5929;51.906;7.674;2023-12-20T04:06:07;6.20;99.90
11744;DHT22;5929;51.906;7.674;2023-12-20T04:08:34;6.20;99.90
11744;DHT22;5929;51.906;7.674;2023-12-20T04:11:02;6.20;99.90
11744;DHT22;5929;51.906;7.674;2023-12-20T04:13:29;6.20;99.90
11744;DHT22;5929;51.906;7.674;2023-12-20T04:15:56;6.20;99.90
11744;DHT22;5929;51.906;7.674;2023-12-20T04:18:23;6.10;99.90
11744;DHT22;5929;51.906;7.674;2023-12-20T04:20:49;6.10;99.90
11744;DHT22;5929;51.906;7.674;2023-12-20T04:23:18;6.10;99.90
11744;DHT22;5929;51.906;7.674;2023-12-20T04:25:45;6.10;99.90
11744;DHT22;5929;51.906;7.674;2023-12-20T04:28:12;6.10;99.90
11744;DHT22;5929;51.906;7.674;2023-12-20T04:30:39;6.10;99.90
11744;DHT22;5929;51.906;7.674;2023-12-20T04:33:06;6.20;99.90
11744;DHT22;5929;51.906;7.674;2023-12-20T04:35:32;6.10;99.90
11744;DHT22;5929;51.906;7.674;2023-12-20T04:38:02;6.20;99.90
11744;DHT22;5929;51.906;7.674;2023-12-20T04:40:30;6.20;99.90
11744;DHT22;5929;51.906;7.674;2023-12-20T04:42:57;6.30;99.90
11744;DHT22;5929;51.906;7.674;2023-12-20T04:45:23;6.30;99.90
11744;DHT22;5929;51.906;7.674;2023-12-20T04:47:51;6.30;99.90
11744;DHT22;5929;51.906;7.674;2023-12-20T04:50:18;6.30;99.90
11744;DHT22;5929;51.906;7.674;2023-12-20T04:52:45;6.40;99.90
11744;DHT22;5929;51.906;7.674;2023-12-20T04:55:12;6.40;99.90
11744;DHT22;5929;51.906;7.674;2023-12-20T04:57:40;6.30;99.90
11744;DHT22;5929;51.906;7.674;2023-12-20T05:00:09;6.30;99.90
11744;DHT22;5929;51.906;7.674;2023-12-20T05:02:36;6.30;99.90
11744;DHT22;5929;51.906;7.674;2023-12-20T05:05:03;6.40;99.90
11744;DHT22;5929;51.906;7.674;2023-12-20T05:07:30;6.40;99.90
11744;DHT22;5929;51.906;7.674;2023-12-20T05:09:56;6.40;99.90
11744;DHT22;5929;51.906;7.674;2023-12-20T05:12:23;6.40;99.90
11744;DHT22;5929;51.906;7.674;2023-12-20T05:14:52;6.40;99.90
11744;DHT22;5929;51.906;7.674;2023-12-20T05:17:19;6.40;99.90
11744;DHT22;5929;51.906;7.674;2023-12-20T05:19:46;6.40;99.90
11744;DHT22;5929;51.906;7.674;2023-12-20T05:22:13;6.40;99.90
11744;DHT22;5929;51.906;7.674;2023-12-20T05:24:40;6.40;99.90
11744;DHT22;5929;51.906;7.674;2023-12-20T05:27:07;6.40;99.90
11744;DHT22;5929;51.906;7.674;2023-12-20T05:29:33;6.40;99.90
11744;DHT22;5929;51.906;7.674;2023-12-20T05:32:01;6.30;99.90
11744;DHT22;5929;51.906;7.674;2023-12-20T05:34:30;6.20;99.90
11744;DHT22;5929;51.906;7.674;2023-12-20T05:36:57;6.20;99.90
11744;DHT22;5929;51.906;7.674;2023-12-20T05:39:24;6.10;99.90
11744;DHT22;5929;51.906;7.674;2023-12-20T05:41:51;6.00;99.90
11744;DHT22;5929;51.906;7.674;2023-12-20T05:44:18;6.00;99.90
11744;DHT22;5929;51.906;7.674;2023-12-20T05:46:47;6.00;99.90
11744;DHT22;5929;51.906;7.674;2023-12-20T05:49:17;6.00;99.90
11744;DHT22;5929;51.906;7.674;2023-12-20T05:51:47;5.90;99.90
11744;DHT22;5929;51.906;7.674;2023-12-20T05:54:13;6.00;99.90
11744;DHT22;5929;51.906;7.674;2023-12-20T05:56:40;6.00;99.90
11744;DHT22;5929;51.906;7.674;2023-12-20T05:59:07;6.00;99.90
11744;DHT22;5929;51.906;7.674;2023-12-20T06:01:34;6.00;99.90
11744;DHT22;5929;51.906;7.674;2023-12-20T06:04:01;6.00;99.90
11744;DHT22;5929;51.906;7.674;2023-12-20T06:06:30;6.00;99.90
11744;DHT22;5929;51.906;7.674;2023-12-20T06:08:57;6.00;99.90
11744;DHT22;5929;51.906;7.674;2023-12-20T06:11:24;6.10;99.90
11744;DHT22;5929;51.906;7.674;2023-12-20T06:13:50;6.10;99.90
11744;DHT22;5929;51.906;7.674;2023-12-20T06:16:19;6.10;99.90
11744;DHT22;5929;51.906;7.674;2023-12-20T06:18:46;6.10;99.90
11744;DHT22;5929;51.906;7.674;2023-12-20T06:21:12;6.20;99.90
11744;DHT22;5929;51.906;7.674;2023-12-20T06:23:41;6.20;99.90
11744;DHT22;5929;51.906;7.674;2023-12-20T06:26:10;6.20;99.90
11744;DHT22;5929;51.906;7.674;2023-12-20T06:28:37;6.20;99.90
11744;DHT22;5929;51.906;7.674;2023-12-20T06:31:04;6.20;99.90
11744;DHT22;5929;51.906;7.674;2023-12-20T06:33:31;6.20;99.90
11744;DHT22;5929;51.906;7.674;2023-12-20T06:35:58;6.30;99.90
11744;DHT22;5929;51.906;7.674;2023-12-20T06:38:24;6.30;99.90
11744;DHT22;5929;51.906;7.674;2023-12-20T06:40:53;6.30;99.90
11744;DHT22;5929;51.906;7.674;2023-12-20T06:43:20;6.30;99.90
11744;DHT22;5929;51.906;7.674;2023-12-20T06:45:47;6.30;99.90
11744;DHT22;5929;51.906;7.674;2023-12-20T06:48:14;6.30;99.90
11744;DHT22;5929;51.906;7.674;2023-12-20T06:50:41;6.40;99.90
11744;DHT22;5929;51.906;7.674;2023-12-20T06:53:08;6.40;99.90
11744;DHT22;5929;51.906;7.674;2023-12-20T06:55:35;6.40;99.90
11744;DHT22;5929;51.906;7.674;2023-12-20T06:58:04;6.50;99.90
11744;DHT22;5929;51.906;7.674;2023-12-20T07:00:32;6.40;99.90
11744;DHT22;5929;51.906;7.674;2023-12-20T07:02:59;6.50;99.90
11744;DHT22;5929;51.906;7.674;2023-12-20T07:05:26;6.40;99.90
11744;DHT22;5929;51.906;7.674;2023-12-20T07:07:53;6.40;99.90
11744;DHT22;5929;51.906;7.674;2023-12-20T07:10:20;6.50;99.90
11744;DHT22;5929;51.906;7.674;2023-12-20T07:12:49;6.50;99.90
11744;DHT22;5929;51.906;7.674;2023-12-20T07:15:18;6.50;99.90
11744;DHT22;5929;51.906;7.674;2023-12-20T07:17:45;6.50;99.90
11744;DHT22;5929;51.906;7.674;2023-12-20T07:20:12;6.50;99.90
11744;DHT22;5929;51.906;7.674;2023-12-20T07:22:39;6.50;99.90
11744;DHT22;5929;51.906;7.674;2023-12-20T07:25:06;6.50;99.90
11744;DHT22;5929;51.906;7.674;2023-12-20T07:27:33;6.50;99.90
11744;DHT22;5929;51.906;7.674;2023-12-20T07:30:00;6.50;99.90
11744;DHT22;5929;51.906;7.674;2023-12-20T07:32:28;6.50;99.90
11744;DHT22;5929;51.906;7.674;2023-12-20T07:34:55;6.50;99.90
11744;DHT22;5929;51.906;7.674;2023-12-20T07:37:22;6.50;99.90
11744;DHT22;5929;51.906;7.674;2023-12-20T07:39:49;6.50;99.90
11744;DHT22;5929;51.906;7.674;2023-12-20T07:42:16;6.50;99.90
11744;DHT22;5929;51.906;7.674;2023-12-20T07:44:43;6.60;99.90
11744;DHT22;5929;51.906;7.674;2023-12-20T07:47:09;6.60;99.90
11744;DHT22;5929;51.906;7.674;2023-12-20T07:49:39;6.50;99.90
11744;DHT22;5929;51.906;7.674;2023-12-20T07:52:06;6.60;99.90
11744;DHT22;5929;51.906;7.674;2023-12-20T07:54:33;6.60;99.90
11744;DHT22;5929;51.906;7.674;2023-12-20T07:57:00;6.60;99.90
11744;DHT22;5929;51.906;7.674;2023-12-20T07:59:27;6.60;99.90
11744;DHT22;5929;51.906;7.674;2023-12-20T08:01:54;6.60;99.90
11744;DHT22;5929;51.906;7.674;2023-12-20T08:04:21;6.60;99.90
11744;DHT22;5929;51.906;7.674;2023-12-20T08:06:50;6.70;99.90
11744;DHT22;5929;51.906;7.674;2023-12-20T08:09:16;6.70;99.90
11744;DHT22;5929;51.906;7.674;2023-12-20T08:11:45;6.60;99.90
11744;DHT22;5929;51.906;7.674;2023-12-20T08:14:11;6.70;99.90
11744;DHT22;5929;51.906;7.674;2023-12-20T08:16:38;6.70;99.90
11744;DHT22;5929;51.906;7.674;2023-12-20T08:19:05;6.70;99.90
11744;DHT22;5929;51.906;7.674;2023-12-20T08:21:32;6.80;99.90
11744;DHT22;5929;51.906;7.674;2023-12-20T08:24:00;6.80;99.90
11744;DHT22;5929;51.906;7.674;2023-12-20T08:26:27;6.80;99.90
11744;DHT22;5929;51.906;7.674;2023-12-20T08:28:54;6.80;99.90
11744;DHT22;5929;51.906;7.674;2023-12-20T08:31:20;6.80;99.90
11744;DHT22;5929;51.906;7.674;2023-12-20T08:33:48;6.80;99.90
11744;DHT22;5929;51.906;7.674;2023-12-20T08:36:16;6.80;99.90
11744;DHT22;5929;51.906;7.674;2023-12-20T08:38:44;6.80;99.90
11744;DHT22;5929;51.906;7.674;2023-12-20T08:41:12;6.90;99.90
11744;DHT22;5929;51.906;7.674;2023-12-20T08:43:39;6.80;99.90
11744;DHT22;5929;51.906;7.674;2023-12-20T08:46:06;6.80;99.90
11744;DHT22;5929;51.906;7.674;2023-12-20T08:48:35;6.80;99.90
11744;DHT22;5929;51.906;7.674;2023-12-20T08:51:03;6.80;99.90
11744;DHT22;5929;51.906;7.674;2023-12-20T08:53:30;6.80;99.90
11744;DHT22;5929;51.906;7.674;2023-12-20T08:55:56;6.80;99.90
11744;DHT22;5929;51.906;7.674;2023-12-20T08:58:28;6.80;99.90
11744;DHT22;5929;51.906;7.674;2023-12-20T09:00:55;6.80;99.90
11744;DHT22;5929;51.906;7.674;2023-12-20T09:03:22;6.80;99.90
11744;DHT22;5929;51.906;7.674;2023-12-20T09:05:49;6.90;99.90
11744;DHT22;5929;51.906;7.674;2023-12-20T09:08:16;6.90;99.90
11744;DHT22;5929;51.906;7.674;2023-12-20T09:10:43;6.90;99.90
11744;DHT22;5929;51.906;7.674;2023-12-20T09:13:10;6.90;99.90
11744;DHT22;5929;51.906;7.674;2023-12-20T09:15:38;6.90;99.90
11744;DHT22;5929;51.906;7.674;2023-12-20T09:18:06;6.90;99.90
11744;DHT22;5929;51.906;7.674;2023-12-20T09:20:33;6.80;99.90
11744;DHT22;5929;51.906;7.674;2023-12-20T09:23:00;6.80;99.90
11744;DHT22;5929;51.906;7.674;2023-12-20T09:25:27;6.90;99.90
11744;DHT22;5929;51.906;7.674;2023-12-20T09:27:54;6.90;99.90
11744;DHT22;5929;51.906;7.674;2023-12-20T09:30:21;6.90;99.90
11744;DHT22;5929;51.906;7.674;2023-12-20T09:32:49;6.90;99.90
11744;DHT22;5929;51.906;7.674;2023-12-20T09:35:16;6.90;99.90
11744;DHT22;5929;51.906;7.674;2023-12-20T09:37:43;6.90;99.90
11744;DHT22;5929;51.906;7.674;2023-12-20T09:40:13;6.90;99.90
11744;DHT22;5929;51.906;7.674;2023-12-20T09:42:46;6.90;99.90
11744;DHT22;5929;51.906;7.674;2023-12-20T09:45:15;6.90;99.90
11744;DHT22;5929;51.906;7.674;2023-12-20T09:47:43;6.80;99.90
11744;DHT22;5929;51.906;7.674;2023-12-20T09:50:12;6.80;99.90
11744;DHT22;5929;51.906;7.674;2023-12-20T09:52:40;6.90;99.90
11744;DHT22;5929;51.906;7.674;2023-12-20T09:55:08;7.00;99.90
11744;DHT22;5929;51.906;7.674;2023-12-20T09:57:35;7.00;99.90
11744;DHT22;5929;51.906;7.674;2023-12-20T10:00:02;7.10;99.90
11744;DHT22;5929;51.906;7.674;2023-12-20T10:02:31;7.20;99.90
11744;DHT22;5929;51.906;7.674;2023-12-20T10:05:00;7.20;99.90
11744;DHT22;5929;51.906;7.674;2023-12-20T10:07:30;7.20;99.90
11744;DHT22;5929;51.906;7.674;2023-12-20T10:09:56;7.30;99.90
11744;DHT22;5929;51.906;7.674;2023-12-20T10:12:24;7.30;99.90
11744;DHT22;5929;51.906;7.674;2023-12-20T10:14:50;7.40;99.90
11744;DHT22;5929;51.906;7.674;2023-12-20T10:17:17;7.40;99.90
11744;DHT22;5929;51.906;7.674;2023-12-20T10:19:44;7.50;99.90
11744;DHT22;5929;51.906;7.674;2023-12-20T10:22:11;7.50;99.90
11744;DHT22;5929;51.906;7.674;2023-12-20T10:24:42;7.50;99.90
11744;DHT22;5929;51.906;7.674;2023-12-20T10:27:08;7.40;99.90
11744;DHT22;5929;51.906;7.674;2023-12-20T10:29:38;7.30;99.90
11744;DHT22;5929;51.906;7.674;2023-12-20T10:32:26;7.20;99.90
11744;DHT22;5929;51.906;7.674;2023-12-20T10:34:54;7.10;99.90
11744;DHT22;5929;51.906;7.674;2023-12-20T10:37:21;7.00;99.90
11744;DHT22;5929;51.906;7.674;2023-12-20T10:39:51;6.90;99.90
11744;DHT22;5929;51.906;7.674;2023-12-20T10:42:22;6.80;99.90
11744;DHT22;5929;51.906;7.674;2023-12-20T10:44:49;6.80;99.90
11744;DHT22;5929;51.906;7.674;2023-12-20T10:47:16;6.70;99.90
11744;DHT22;5929;51.906;7.674;2023-12-20T10:49:45;6.70;99.90
11744;DHT22;5929;51.906;7.674;2023-12-20T10:52:12;6.70;99.90
11744;DHT22;5929;51.906;7.674;2023-12-20T10:54:40;6.70;99.90
11744;DHT22;5929;51.906;7.674;2023-12-20T10:57:08;6.70;99.90
11744;DHT22;5929;51.906;7.674;2023-12-20T10:59:37;6.70;99.90
11744;DHT22;5929;51.906;7.674;2023-12-20T11:02:04;6.70;99.90
11744;DHT22;5929;51.906;7.674;2023-12-20T11:04:39;6.70;99.90
11744;DHT22;5929;51.906;7.674;2023-12-20T11:07:16;6.70;99.90
11744;DHT22;5929;51.906;7.674;2023-12-20T11:09:54;6.70;99.90
11744;DHT22;5929;51.906;7.674;2023-12-20T11:12:35;6.60;99.90
11744;DHT22;5929;51.906;7.674;2023-12-20T11:15:05;6.60;99.90
11744;DHT22;5929;51.906;7.674;2023-12-20T11:17:33;6.60;99.90
11744;DHT22;5929;51.906;7.674;2023-12-20T11:20:10;6.60;99.90
11744;DHT22;5929;51.906;7.674;2023-12-20T11:22:40;6.60;99.90
11744;DHT22;5929;51.906;7.674;2023-12-20T11:25:18;6.60;99.90
11744;DHT22;5929;51.906;7.674;2023-12-20T11:28:07;6.60;99.90
11744;DHT22;5929;51.906;7.674;2023-12-20T11:30:41;6.60;99.90
11744;DHT22;5929;51.906;7.674;2023-12-20T11:33:11;6.70;99.90
11744;DHT22;5929;51.906;7.674;2023-12-20T11:35:39;6.80;99.90
11744;DHT22;5929;51.906;7.674;2023-12-20T11:38:08;6.90;99.90
11744;DHT22;5929;51.906;7.674;2023-12-20T11:40:35;7.00;99.90
11744;DHT22;5929;51.906;7.674;2023-12-20T11:43:04;7.00;99.90
11744;DHT22;5929;51.906;7.674;2023-12-20T11:45:31;7.10;99.90
11744;DHT22;5929;51.906;7.674;2023-12-20T11:47:58;7.10;99.90
11744;DHT22;5929;51.906;7.674;2023-12-20T11:50:25;7.00;99.90
11744;DHT22;5929;51.906;7.674;2023-12-20T11:52:52;7.00;99.90
11744;DHT22;5929;51.906;7.674;2023-12-20T11:55:19;7.00;99.90
11744;DHT22;5929;51.906;7.674;2023-12-20T11:57:46;7.00;99.90
11744;DHT22;5929;51.906;7.674;2023-12-20T12:00:15;7.10;99.90
11744;DHT22;5929;51.906;7.674;2023-12-20T12:02:42;7.10;99.90
11744;DHT22;5929;51.906;7.674;2023-12-20T12:05:09;7.10;99.90
11744;DHT22;5929;51.906;7.674;2023-12-20T12:07:36;7.20;99.90
11744;DHT22;5929;51.906;7.674;2023-12-20T12:10:03;7.30;99.90
11744;DHT22;5929;51.906;7.674;2023-12-20T12:12:30;7.50;99.90
11744;DHT22;5929;51.906;7.674;2023-12-20T12:14:58;7.60;99.90
11744;DHT22;5929;51.906;7.674;2023-12-20T12:17:27;7.60;99.90
11744;DHT22;5929;51.906;7.674;2023-12-20T12:20:02;7.60;99.90
11744;DHT22;5929;51.906;7.674;2023-12-20T12:22:29;7.60;99.90
11744;DHT22;5929;51.906;7.674;2023-12-20T12:24:59;7.60;99.90
11744;DHT22;5929;51.906;7.674;2023-12-20T12:27:35;7.60;99.90
11744;DHT22;5929;51.906;7.674;2023-12-20T12:30:05;7.50;99.90
11744;DHT22;5929;51.906;7.674;2023-12-20T12:32:34;7.50;99.90
11744;DHT22;5929;51.906;7.674;2023-12-20T12:35:03;7.50;99.90
11744;DHT22;5929;51.906;7.674;2023-12-20T12:37:33;7.50;99.90
11744;DHT22;5929;51.906;7.674;2023-12-20T12:40:00;7.50;99.90
11744;DHT22;5929;51.906;7.674;2023-12-20T12:42:27;7.40;99.90
11744;DHT22;5929;51.906;7.674;2023-12-20T12:44:54;7.40;99.90
11744;DHT22;5929;51.906;7.674;2023-12-20T12:47:22;7.50;99.90
11744;DHT22;5929;51.906;7.674;2023-12-20T12:49:51;7.60;99.90
11744;DHT22;5929;51.906;7.674;2023-12-20T12:52:18;7.60;99.90
11744;DHT22;5929;51.906;7.674;2023-12-20T12:54:45;7.70;99.90
11744;DHT22;5929;51.906;7.674;2023-12-20T12:57:13;7.80;99.90
11744;DHT22;5929;51.906;7.674;2023-12-20T12:59:40;7.90;99.90
11744;DHT22;5929;51.906;7.674;2023-12-20T13:02:07;7.90;99.90
11744;DHT22;5929;51.906;7.674;2023-12-20T13:04:34;8.00;99.90
11744;DHT22;5929;51.906;7.674;2023-12-20T13:07:02;8.00;99.90
11744;DHT22;5929;51.906;7.674;2023-12-20T13:09:29;8.10;99.90
11744;DHT22;5929;51.906;7.674;2023-12-20T13:11:55;8.00;99.90
11744;DHT22;5929;51.906;7.674;2023-12-20T13:14:22;8.00;99.90
11744;DHT22;5929;51.906;7.674;2023-12-20T13:16:49;8.00;99.90
11744;DHT22;5929;51.906;7.674;2023-12-20T13:19:18;8.00;99.90
11744;DHT22;5929;51.906;7.674;2023-12-20T13:21:45;7.90;99.90
11744;DHT22;5929;51.906;7.674;2023-12-20T13:24:13;7.90;99.90
11744;DHT22;5929;51.906;7.674;2023-12-20T13:26:40;7.90;99.90
11744;DHT22;5929;51.906;7.674;2023-12-20T13:29:06;7.90;99.90
11744;DHT22;5929;51.906;7.674;2023-12-20T13:31:33;7.90;99.90
11744;DHT22;5929;51.906;7.674;2023-12-20T13:34:02;7.90;99.90
11744;DHT22;5929;51.906;7.674;2023-12-20T13:36:29;8.00;99.90
11744;DHT22;5929;51.906;7.674;2023-12-20T13:38:58;8.00;99.90
11744;DHT22;5929;51.906;7.674;2023-12-20T13:41:26;8.00;99.90
11744;DHT22;5929;51.906;7.674;2023-12-20T13:43:53;8.00;99.90
11744;DHT22;5929;51.906;7.674;2023-12-20T13:46:20;8.00;99.90
11744;DHT22;5929;51.906;7.674;2023-12-20T13:48:46;8.00;99.90
11744;DHT22;5929;51.906;7.674;2023-12-20T13:51:13;8.00;99.90
11744;DHT22;5929;51.906;7.674;2023-12-20T13:53:40;8.00;99.90
11744;DHT22;5929;51.906;7.674;2023-12-20T13:56:07;8.00;99.90
11744;DHT22;5929;51.906;7.674;2023-12-20T13:58:35;8.00;99.90
11744;DHT22;5929;51.906;7.674;2023-12-20T14:01:02;8.00;99.90
11744;DHT22;5929;51.906;7.674;2023-12-20T14:03:29;8.00;99.90
11744;DHT22;5929;51.906;7.674;2023-12-20T14:05:56;8.00;99.90
11744;DHT22;5929;51.906;7.674;2023-12-20T14:08:25;8.10;99.90
11744;DHT22;5929;51.906;7.674;2023-12-20T14:10:52;8.10;99.90
11744;DHT22;5929;51.906;7.674;2023-12-20T14:13:19;8.10;99.90
11744;DHT22;5929;51.906;7.674;2023-12-20T14:15:48;8.10;99.90
11744;DHT22;5929;51.906;7.674;2023-12-20T14:18:15;8.10;99.90
11744;DHT22;5929;51.906;7.674;2023-12-20T14:20:42;8.10;99.90
11744;DHT22;5929;51.906;7.674;2023-12-20T14:23:10;8.10;99.90
11744;DHT22;5929;51.906;7.674;2023-12-20T14:25:36;8.10;99.90
11744;DHT22;5929;51.906;7.674;2023-12-20T14:28:04;8.00;99.90
11744;DHT22;5929;51.906;7.674;2023-12-20T14:30:31;8.00;99.90
11744;DHT22;5929;51.906;7.674;2023-12-20T14:32:59;8.10;99.90
11744;DHT22;5929;51.906;7.674;2023-12-20T14:35:26;8.00;99.90
11744;DHT22;5929;51.906;7.674;2023-12-20T14:37:55;8.00;99.90
11744;DHT22;5929;51.906;7.674;2023-12-20T14:40:22;8.00;99.90
11744;DHT22;5929;51.906;7.674;2023-12-20T14:42:49;8.00;99.90
11744;DHT22;5929;51.906;7.674;2023-12-20T14:45:17;8.00;99.90
11744;DHT22;5929;51.906;7.674;2023-12-20T14:47:44;8.00;99.90
11744;DHT22;5929;51.906;7.674;2023-12-20T14:50:12;8.00;99.90
11744;DHT22;5929;51.906;7.674;2023-12-20T14:52:43;7.90;99.90
11744;DHT22;5929;51.906;7.674;2023-12-20T14:55:10;7.90;99.90
11744;DHT22;5929;51.906;7.674;2023-12-20T14:57:37;7.80;99.90
11744;DHT22;5929;51.906;7.674;2023-12-20T15:00:05;7.70;99.90
11744;DHT22;5929;51.906;7.674;2023-12-20T15:02:32;7.60;99.90
11744;DHT22;5929;51.906;7.674;2023-12-20T15:04:59;7.60;99.90
11744;DHT22;5929;51.906;7.674;2023-12-20T15:07:28;7.50;99.90
11744;DHT22;5929;51.906;7.674;2023-12-20T15:09:55;7.50;99.90
11744;DHT22;5929;51.906;7.674;2023-12-20T15:12:22;7.50;99.90
11744;DHT22;5929;51.906;7.674;2023-12-20T15:14:49;7.50;99.90
11744;DHT22;5929;51.906;7.674;2023-12-20T15:17:16;7.50;99.90
11744;DHT22;5929;51.906;7.674;2023-12-20T15:19:43;7.50;99.90
11744;DHT22;5929;51.906;7.674;2023-12-20T15:22:10;7.50;99.90
11744;DHT22;5929;51.906;7.674;2023-12-20T15:24:39;7.50;99.90
11744;DHT22;5929;51.906;7.674;2023-12-20T15:27:06;7.50;99.90
11744;DHT22;5929;51.906;7.674;2023-12-20T15:29:33;7.50;99.90
11744;DHT22;5929;51.906;7.674;2023-12-20T15:32:00;7.50;99.90
11744;DHT22;5929;51.906;7.674;2023-12-20T15:34:27;7.50;99.90
11744;DHT22;5929;51.906;7.674;2023-12-20T15:36:54;7.50;99.90
11744;DHT22;5929;51.906;7.674;2023-12-20T15:39:21;7.50;99.90
11744;DHT22;5929;51.906;7.674;2023-12-20T15:41:49;7.50;99.90
11744;DHT22;5929;51.906;7.674;2023-12-20T15:44:17;7.50;99.90
11744;DHT22;5929;51.906;7.674;2023-12-20T15:46:44;7.50;99.90
11744;DHT22;5929;51.906;7.674;2023-12-20T15:49:11;7.50;99.90
11744;DHT22;5929;51.906;7.674;2023-12-20T15:51:38;7.50;99.90
11744;DHT22;5929;51.906;7.674;2023-12-20T15:54:04;7.40;99.90
11744;DHT22;5929;51.906;7.674;2023-12-20T15:56:33;7.40;99.90
11744;DHT22;5929;51.906;7.674;2023-12-20T15:59:03;7.40;99.90
11744;DHT22;5929;51.906;7.674;2023-12-20T16:01:30;7.40;99.90
11744;DHT22;5929;51.906;7.674;2023-12-20T16:03:59;7.30;99.90